Time;durP1;ratioP1;P1;durP2;ratioP2;P2;SDS_P1;SDS_P2;PMS_P1;PMS_P2;Temp;Humidity;BMP_temperature;BMP_pressure;BME280_temperature;BME280_humidity;BME280_pressure;Samples;Min_cycle;Max_cycle;Signal;HPM_P1;HPM_P2
2023/03/06 04:14:58;;;;;;;5.70;1.70;;;;;;;1.35;65.11;99414.77;101997;1293;600836;-71
2023/03/06 04:17:27;;;;;;;6.80;2.40;;;;;;;1.59;64.45;99414.59;104345;1266;59132;-69
2023/03/06 04:19:56;;;;;;;5.70;1.90;;;;;;;1.68;64.25;99413.22;105887;1265;61178;-70
2023/03/06 04:22:24;;;;;;;6.20;2.40;;;;;;;1.74;64.24;99414.13;104721;1266;74187;-70
2023/03/06 04:24:53;;;;;;;4.80;1.70;;;;;;;1.80;64.40;99417.02;104628;1267;71039;-71
2023/03/06 04:27:23;;;;;;;8.60;3.30;;;;;;;1.83;64.38;99418.41;104521;1269;182251;-70
2023/03/06 04:29:55;;;;;;;7.70;3.80;;;;;;;1.83;64.40;99417.19;104826;1267;60247;-71
2023/03/06 04:32:23;;;;;;;9.70;3.60;;;;;;;1.83;64.30;99420.11;104837;1263;61013;-69
2023/03/06 04:34:52;;;;;;;8.50;3.20;;;;;;;1.79;64.23;99420.02;104815;1264;72506;-70
2023/03/06 04:37:24;;;;;;;9.70;3.40;;;;;;;1.76;64.03;99418.67;104727;1267;70038;-71
2023/03/06 04:39:53;;;;;;;9.50;2.80;;;;;;;1.68;64.08;99419.46;104749;1264;72431;-70
2023/03/06 04:42:21;;;;;;;8.20;2.80;;;;;;;1.62;64.12;99417.73;104687;1264;60410;-70
2023/03/06 04:44:49;;;;;;;7.10;2.80;;;;;;;1.57;64.19;99422.33;104760;1263;61312;-70
2023/03/06 04:47:19;;;;;;;5.70;2.10;;;;;;;1.52;64.23;99426.09;104749;1267;74284;-71
2023/03/06 04:49:47;;;;;;;7.60;2.50;;;;;;;1.47;64.44;99426.16;104849;1267;71288;-70
2023/03/06 04:52:15;;;;;;;5.70;2.30;;;;;;;1.46;64.46;99429.02;104691;1267;73636;-70
2023/03/06 04:54:44;;;;;;;5.50;2.10;;;;;;;1.44;64.45;99427.75;104691;1263;60635;-71
2023/03/06 04:57:13;;;;;;;5.00;2.00;;;;;;;1.42;64.53;99426.83;104578;1265;61378;-70
2023/03/06 04:59:41;;;;;;;8.10;2.90;;;;;;;1.41;64.72;99428.27;104680;1267;74095;-71
2023/03/06 05:02:10;;;;;;;7.00;2.40;;;;;;;1.40;64.65;99432.30;104669;1269;71278;-70
2023/03/06 05:04:38;;;;;;;7.70;3.60;;;;;;;1.39;64.73;99436.86;104743;1267;72494;-72
2023/03/06 05:07:07;;;;;;;9.30;3.00;;;;;;;1.44;64.54;99437.46;104775;1264;62291;-70
2023/03/06 05:09:36;;;;;;;6.00;1.60;;;;;;;1.50;64.36;99440.02;104746;1264;60196;-70
2023/03/06 05:12:06;;;;;;;5.80;1.60;;;;;;;1.58;64.33;99442.67;104993;1267;74010;-70
2023/03/06 05:14:35;;;;;;;5.80;1.70;;;;;;;1.67;64.31;99444.42;105695;1252;71391;-69
2023/03/06 05:17:05;;;;;;;4.10;1.50;;;;;;;1.78;64.35;99445.87;105848;1253;73761;-70
2023/03/06 05:19:35;;;;;;;6.00;2.00;;;;;;;1.86;64.00;99447.77;105668;1256;60630;-71
2023/03/06 05:22:03;;;;;;;5.90;2.10;;;;;;;1.90;63.76;99446.03;105491;1254;61069;-69
2023/03/06 05:24:32;;;;;;;5.70;2.30;;;;;;;1.93;63.62;99445.84;105601;1256;73980;-71
2023/03/06 05:27:00;;;;;;;5.90;2.40;;;;;;;1.89;63.94;99445.74;105938;1256;71842;-71
2023/03/06 05:29:29;;;;;;;9.90;3.20;;;;;;;1.90;63.94;99443.27;105678;1254;73764;-71
2023/03/06 05:31:59;;;;;;;9.90;4.30;;;;;;;1.92;63.92;99441.92;105654;1254;60739;-72
2023/03/06 05:34:28;;;;;;;10.00;4.30;;;;;;;1.93;63.72;99447.02;105565;1253;61393;-70
2023/03/06 05:36:56;;;;;;;8.70;2.60;;;;;;;1.93;63.74;99448.61;105625;1256;74024;-71
2023/03/06 05:39:24;;;;;;;8.90;2.60;;;;;;;1.97;63.90;99449.59;105673;1254;71241;-72
2023/03/06 05:41:52;;;;;;;7.20;2.80;;;;;;;2.00;63.78;99451.48;105723;1254;73646;-70
2023/03/06 05:44:22;;;;;;;7.30;3.40;;;;;;;2.00;63.60;99454.23;105678;1254;59702;-70
2023/03/06 05:46:51;;;;;;;7.90;2.30;;;;;;;2.00;63.53;99451.31;105761;1254;60180;-70
2023/03/06 05:49:19;;;;;;;8.80;2.60;;;;;;;2.05;63.34;99452.71;105917;1256;73992;-71
2023/03/06 05:51:47;;;;;;;7.60;3.40;;;;;;;2.12;63.03;99452.47;105883;1256;70054;-71
2023/03/06 05:54:16;;;;;;;8.80;3.00;;;;;;;2.14;62.91;99454.96;105743;1253;72636;-71
2023/03/06 05:56:44;;;;;;;7.10;2.70;;;;;;;2.12;62.89;99455.40;106620;1254;60378;-70
2023/03/06 05:59:14;;;;;;;8.40;2.90;;;;;;;2.08;62.88;99456.03;106029;1253;61089;-71
2023/03/06 06:01:43;;;;;;;6.90;2.50;;;;;;;2.01;62.90;99461.42;106394;1253;74077;-71
2023/03/06 06:04:11;;;;;;;10.70;4.00;;;;;;;1.97;62.98;99471.20;109345;1253;70086;-70
2023/03/06 06:06:39;;;;;;;9.30;4.10;;;;;;;1.87;62.79;99484.23;109287;1252;71505;-72
2023/03/06 06:09:08;;;;;;;8.00;3.60;;;;;;;1.74;62.89;99498.11;109332;1253;60281;-71
2023/03/06 06:11:39;;;;;;;7.80;3.10;;;;;;;1.64;63.19;99514.61;109364;1253;59944;-72
2023/03/06 07:48:17;;;;;;;8.30;3.40;;;;;;;2.56;58.89;99588.81;102409;1295;605421;-53
2023/03/06 07:50:54;;;;;;;13.90;7.70;;;;;;;2.97;57.64;99591.09;104639;1267;142578;-52
2023/03/06 07:53:21;;;;;;;11.20;3.60;;;;;;;2.92;56.86;99593.44;104683;1268;61434;-53
2023/03/06 07:55:49;;;;;;;10.60;3.70;;;;;;;2.77;56.60;99590.55;104738;1268;73154;-52
2023/03/06 07:58:17;;;;;;;14.60;8.20;;;;;;;2.62;56.80;99594.72;104723;1270;70126;-52
2023/03/06 08:00:44;;;;;;;9.70;3.50;;;;;;;2.55;57.16;99599.45;104474;1269;73446;-54
2023/03/06 08:03:13;;;;;;;7.80;3.40;;;;;;;2.53;57.06;99606.70;104870;1264;60433;-53
2023/03/06 08:05:41;;;;;;;8.20;3.60;;;;;;;2.50;57.26;99607.56;105012;1266;61235;-52
2023/03/06 08:08:08;;;;;;;8.90;3.10;;;;;;;2.53;57.58;99611.89;105320;1267;73552;-51
2023/03/06 08:10:36;;;;;;;7.60;2.60;;;;;;;2.58;57.09;99615.08;105562;1259;71220;-53
2023/03/06 08:13:05;;;;;;;7.90;2.90;;;;;;;2.55;56.98;99618.86;105642;1257;72614;-53
2023/03/06 08:15:32;;;;;;;7.40;3.60;;;;;;;2.47;57.00;99622.98;105586;1254;60336;-55
2023/03/06 08:17:59;;;;;;;7.20;3.40;;;;;;;2.39;57.45;99623.77;105559;1258;61123;-52
2023/03/06 08:20:26;;;;;;;9.70;3.90;;;;;;;2.38;57.86;99626.96;105495;1255;72765;-52
2023/03/06 08:22:53;;;;;;;8.50;3.90;;;;;;;2.41;58.11;99625.56;105544;1256;71152;-51
2023/03/06 08:25:20;;;;;;;10.80;3.20;;;;;;;2.49;57.84;99626.30;105526;1257;73722;-51
2023/03/06 08:27:47;;;;;;;10.50;3.30;;;;;;;2.65;57.09;99631.61;105538;1259;62232;-52
2023/03/06 08:30:15;;;;;;;9.10;3.00;;;;;;;2.72;56.03;99631.52;105627;1254;61453;-51
2023/03/06 08:32:43;;;;;;;7.00;2.40;;;;;;;2.76;55.69;99634.95;105498;1257;73838;-51
2023/03/06 08:35:10;;;;;;;6.40;2.80;;;;;;;2.77;55.43;99636.08;105570;1254;71007;-51
2023/03/06 08:37:41;;;;;;;5.90;2.20;;;;;;;2.76;55.18;99643.09;105403;1255;73492;-51
2023/03/06 08:40:09;;;;;;;6.50;2.50;;;;;;;2.67;55.07;99643.09;105534;1254;60389;-52
2023/03/06 08:42:36;;;;;;;11.20;4.00;;;;;;;2.55;54.72;99643.77;105543;1254;61025;-52
2023/03/06 08:45:03;;;;;;;8.70;3.50;;;;;;;2.48;54.70;99640.08;105374;1255;74877;-51
2023/03/06 08:47:33;;;;;;;8.50;2.60;;;;;;;2.48;55.17;99640.92;105413;1259;71562;-52
2023/03/06 08:50:00;;;;;;;8.00;3.30;;;;;;;2.53;55.02;99640.65;105460;1254;72745;-52
2023/03/06 08:52:27;;;;;;;9.80;3.70;;;;;;;2.62;54.76;99641.17;105542;1257;60861;-52
2023/03/06 08:54:56;;;;;;;6.30;1.80;;;;;;;2.73;54.92;99647.91;105432;1254;61351;-52
2023/03/06 08:57:24;;;;;;;10.50;2.80;;;;;;;2.79;54.42;99648.10;105461;1257;73894;-51
2023/03/06 08:59:55;;;;;;;5.00;1.70;;;;;;;2.82;53.84;99657.66;105261;1254;71642;-53
2023/03/06 09:02:22;;;;;;;7.60;1.90;;;;;;;2.77;52.79;99657.38;105274;1258;72725;-51
2023/03/06 09:04:49;;;;;;;7.70;3.10;;;;;;;2.71;52.80;99658.30;105432;1254;60262;-51
2023/03/06 09:07:16;;;;;;;9.50;3.20;;;;;;;2.66;53.05;99668.79;105471;1258;61634;-53
2023/03/06 09:09:43;;;;;;;7.10;3.00;;;;;;;2.62;53.37;99666.25;105361;1257;73916;-52
2023/03/06 09:12:11;;;;;;;9.90;3.30;;;;;;;2.61;53.81;99663.21;105194;1255;71136;-54
2023/03/06 09:14:38;;;;;;;7.50;2.90;;;;;;;2.68;54.71;99661.23;105231;1258;73919;-53
2023/03/06 09:17:05;;;;;;;7.30;2.30;;;;;;;2.84;53.87;99661.50;105311;1254;61145;-53
2023/03/06 09:19:32;;;;;;;6.60;2.40;;;;;;;2.99;52.84;99661.45;105387;1257;60317;-53
2023/03/06 09:21:59;;;;;;;10.30;5.40;;;;;;;3.15;51.91;99660.48;105473;1254;74031;-54
2023/03/06 09:24:28;;;;;;;6.60;2.10;;;;;;;3.30;52.25;99665.34;105241;1254;69907;-53
2023/03/06 09:26:54;;;;;;;6.20;2.30;;;;;;;3.40;51.96;99664.52;105328;1257;73609;-52
2023/03/06 09:29:21;;;;;;;6.00;2.70;;;;;;;3.46;51.60;99672.00;105422;1257;60548;-52
2023/03/06 09:31:52;;;;;;;7.00;2.10;;;;;;;3.44;49.99;99671.02;105453;1255;61327;-52
2023/03/06 09:34:19;;;;;;;5.50;2.10;;;;;;;3.36;49.93;99673.61;105450;1254;72731;-51
2023/03/06 09:36:46;;;;;;;5.80;1.90;;;;;;;3.30;49.08;99674.36;105441;1254;71336;-52
2023/03/06 09:39:24;;;;;;;6.20;2.60;;;;;;;3.24;48.52;99679.23;105619;1257;73592;-52
2023/03/06 09:41:51;;;;;;;6.10;2.10;;;;;;;3.17;48.63;99679.61;105493;1254;60216;-51
2023/03/06 09:44:24;;;;;;;6.20;2.40;;;;;;;3.13;48.74;99681.79;105670;1254;61772;-51
2023/03/06 09:47:00;;;;;;;8.30;2.50;;;;;;;3.10;48.95;99681.93;105714;1254;72264;-51
2023/03/06 09:49:45;;;;;;;6.60;2.80;;;;;;;3.12;49.52;99682.86;105398;1254;71319;-53
2023/03/06 09:52:21;;;;;;;6.60;2.60;;;;;;;3.14;49.27;99683.12;105577;1260;73736;-53
2023/03/06 09:55:01;;;;;;;6.50;1.70;;;;;;;3.19;49.25;99681.08;106217;1254;60260;-51
2023/03/06 09:57:31;;;;;;;6.40;2.20;;;;;;;3.25;49.77;99676.88;105568;1254;61111;-52
2023/03/06 10:00:00;;;;;;;5.60;2.20;;;;;;;3.33;50.04;99679.83;105514;1254;73055;-53
2023/03/06 10:02:42;;;;;;;5.90;2.50;;;;;;;3.43;49.50;99677.68;105889;1254;70968;-52
2023/03/06 10:05:25;;;;;;;5.20;1.90;;;;;;;3.49;47.98;99680.09;105357;1257;73640;-52
2023/03/06 10:08:11;;;;;;;7.50;2.40;;;;;;;3.50;47.69;99678.30;105437;1254;60368;-52
2023/03/06 10:10:43;;;;;;;6.80;1.90;;;;;;;3.49;48.02;99686.89;105574;1254;61508;-53
2023/03/06 10:13:19;;;;;;;6.50;2.40;;;;;;;3.42;48.22;99683.68;105468;1260;74021;-53
2023/03/06 10:15:46;;;;;;;5.60;2.10;;;;;;;3.34;48.48;99681.00;105789;1254;71036;-52
2023/03/06 10:18:26;;;;;;;6.50;2.00;;;;;;;3.37;49.06;99682.38;105392;1254;73451;-52
2023/03/06 10:21:03;;;;;;;7.80;3.20;;;;;;;3.44;48.83;99679.20;105417;1254;60442;-52
2023/03/06 10:23:53;;;;;;;7.90;1.90;;;;;;;3.52;47.30;99674.89;105699;1254;61316;-54
2023/03/06 10:26:28;;;;;;;6.60;2.40;;;;;;;3.67;48.72;99671.21;105433;1255;74035;-54
2023/03/06 10:29:10;;;;;;;6.80;2.40;;;;;;;3.92;46.67;99672.93;105608;1257;68942;-53
2023/03/06 10:31:38;;;;;;;4.20;1.50;;;;;;;4.12;45.94;99674.26;105665;1257;73700;-51
2023/03/06 10:34:15;;;;;;;7.00;3.90;;;;;;;4.20;45.18;99669.52;105501;1258;59803;-51
2023/03/06 10:36:42;;;;;;;4.70;1.40;;;;;;;4.31;45.14;99672.66;105454;1257;59554;-52
2023/03/06 10:39:20;;;;;;;5.30;1.90;;;;;;;4.42;45.08;99679.38;105529;1257;74616;-51
2023/03/06 10:41:48;;;;;;;8.30;4.10;;;;;;;4.57;45.13;99675.30;105551;1257;70475;-51
2023/03/06 10:44:14;;;;;;;6.60;2.20;;;;;;;4.64;45.05;99673.23;105476;1257;73626;-51
2023/03/06 10:46:46;;;;;;;6.70;2.60;;;;;;;4.68;45.10;99667.96;105665;1254;60396;-52
2023/03/06 10:49:33;;;;;;;5.30;1.90;;;;;;;4.75;45.49;99670.96;105566;1254;61548;-52
2023/03/06 10:52:00;;;;;;;9.50;4.60;;;;;;;4.85;43.99;99670.98;105813;1259;73559;-53
2023/03/06 10:54:29;;;;;;;5.80;1.90;;;;;;;4.91;43.93;99671.30;107503;1254;71132;-50
2023/03/06 10:56:56;;;;;;;4.40;1.30;;;;;;;4.96;42.74;99666.27;105532;1257;73907;-52
2023/03/06 10:59:27;;;;;;;6.40;1.50;;;;;;;4.99;42.93;99669.88;105516;1253;59625;-52
2023/03/06 11:01:57;;;;;;;7.50;3.90;;;;;;;5.07;42.22;99671.77;105639;1253;61102;-53
2023/03/06 11:04:32;;;;;;;5.10;2.00;;;;;;;5.08;41.89;99681.77;106337;1255;73843;-51
2023/03/06 11:07:18;;;;;;;9.50;1.60;;;;;;;4.94;40.81;99682.73;106066;1254;71047;-52
2023/03/06 11:09:56;;;;;;;5.40;1.70;;;;;;;4.78;40.68;99688.85;105566;1254;73680;-52
2023/03/06 11:12:38;;;;;;;8.70;3.40;;;;;;;4.69;41.21;99671.59;105539;1254;60473;-53
2023/03/06 11:15:11;;;;;;;6.20;2.90;;;;;;;4.68;42.07;99673.19;105638;1254;61326;-52
2023/03/06 11:18:00;;;;;;;9.90;1.60;;;;;;;4.84;41.82;99667.23;105519;1255;74254;-51
2023/03/06 11:20:34;;;;;;;3.30;1.50;;;;;;;5.02;41.56;99669.47;105407;1254;71281;-52
2023/03/06 11:23:45;;;;;;;3.40;1.00;;;;;;;5.12;39.70;99686.77;105591;1253;73562;-51
2023/03/06 11:26:15;;;;;;;6.10;2.20;;;;;;;5.05;38.45;99674.17;105423;1254;60475;-53
2023/03/06 11:28:53;;;;;;;3.60;1.60;;;;;;;5.01;37.63;99678.23;105781;1254;59967;-54
2023/03/06 11:31:22;;;;;;;4.50;1.40;;;;;;;4.90;38.23;99663.88;105520;1254;73636;-54
2023/03/06 11:34:10;;;;;;;7.00;2.20;;;;;;;4.88;39.21;99666.28;105472;1254;71103;-53
2023/03/06 11:36:42;;;;;;;5.80;2.40;;;;;;;4.95;38.23;99663.57;105447;1257;63855;-54
2023/03/06 11:39:23;;;;;;;3.10;1.10;;;;;;;4.99;38.13;99670.73;105497;1254;60420;-53
2023/03/06 11:42:11;;;;;;;3.40;1.10;;;;;;;4.90;37.90;99669.43;105515;1254;61114;-54
2023/03/06 11:45:21;;;;;;;6.90;2.50;;;;;;;4.87;38.03;99669.80;105752;1259;74405;-53
2023/03/06 11:48:14;;;;;;;3.50;1.10;;;;;;;4.93;37.66;99670.98;105281;1254;71111;-53
2023/03/06 11:50:47;;;;;;;2.80;0.90;;;;;;;4.94;38.58;99668.66;105498;1257;73718;-53
2023/03/06 11:53:16;;;;;;;4.10;1.30;;;;;;;4.95;38.40;99674.16;105397;1253;60549;-54
2023/03/06 11:56:17;;;;;;;5.10;2.20;;;;;;;4.87;38.66;99669.69;105537;1253;61149;-53
2023/03/06 11:58:44;;;;;;;5.00;1.90;;;;;;;4.77;39.04;99673.12;105662;1254;74152;-54
2023/03/06 12:01:20;;;;;;;6.00;2.30;;;;;;;4.68;39.18;99678.23;105439;1254;71339;-54
2023/03/06 12:03:47;;;;;;;;;;;;;;;4.55;39.10;99681.14;105466;1257;73733;-54
2023/03/06 12:06:36;;;;;;;5.60;1.50;;;;;;;4.44;39.75;99680.66;105460;1254;61501;-53
2023/03/06 12:09:12;;;;;;;3.90;1.40;;;;;;;4.42;39.51;99680.96;105387;1253;61172;-52
2023/03/06 12:11:47;;;;;;;6.70;3.00;;;;;;;4.49;38.39;99686.25;105404;1257;74682;-53
2023/03/06 12:14:19;;;;;;;2.20;0.60;;;;;;;4.59;37.90;99677.27;105601;1254;71144;-52
2023/03/06 12:17:05;;;;;;;3.20;0.70;;;;;;;4.70;37.49;99682.10;105545;1254;73679;-52
2023/03/06 12:19:41;;;;;;;2.80;0.90;;;;;;;4.77;37.00;99677.27;105523;1253;61590;-54
2023/03/06 12:22:19;;;;;;;3.30;0.70;;;;;;;4.92;37.17;99670.16;105443;1253;61135;-52
2023/03/06 12:25:25;;;;;;;4.80;1.80;;;;;;;5.17;36.31;99678.75;106577;1254;73956;-54
2023/03/06 12:28:30;;;;;;;5.50;0.70;;;;;;;5.35;34.49;99677.48;105773;1253;70277;-53
2023/03/06 12:31:22;;;;;;;3.30;0.60;;;;;;;5.45;35.08;99669.84;106092;1254;73902;-52
2023/03/06 12:34:14;;;;;;;5.10;1.70;;;;;;;5.62;34.43;99670.60;105506;1254;60561;-52
2023/03/06 12:37:07;;;;;;;2.80;0.50;;;;;;;5.78;33.96;99671.86;105921;1253;61397;-52
2023/03/06 12:39:51;;;;;;;4.70;1.80;;;;;;;5.88;33.26;99673.63;105455;1259;74811;-50
2023/03/06 12:42:28;;;;;;;2.40;0.90;;;;;;;5.93;33.10;99669.73;105670;1254;71261;-51
2023/03/06 12:45:02;;;;;;;3.30;0.60;;;;;;;6.02;32.48;99664.62;105477;1260;73765;-51
2023/03/06 12:47:38;;;;;;;3.70;1.10;;;;;;;6.14;32.82;99656.77;105420;1254;60926;-52
2023/03/06 12:50:18;;;;;;;2.30;0.50;;;;;;;6.34;31.84;99653.54;105143;1254;61254;-52
2023/03/06 12:52:44;;;;;;;3.90;1.40;;;;;;;6.47;31.17;99667.92;105370;1253;74780;-52
2023/03/06 12:55:13;;;;;;;5.00;1.30;;;;;;;6.42;31.73;99664.52;105446;1256;71298;-53
2023/03/06 12:57:41;;;;;;;3.90;1.50;;;;;;;6.42;31.55;99663.75;105336;1253;73661;-53
2023/03/06 13:00:31;;;;;;;3.80;1.10;;;;;;;6.54;31.05;99656.44;105815;1254;60406;-51
2023/03/06 13:03:23;;;;;;;3.70;1.10;;;;;;;6.81;29.70;99663.00;105418;1253;61004;-55
2023/03/06 13:06:04;;;;;;;5.80;2.10;;;;;;;6.96;29.31;99664.66;105400;1254;74555;-52
2023/03/06 13:08:54;;;;;;;4.10;1.50;;;;;;;7.10;29.18;99666.17;105377;1254;70947;-51
2023/03/06 13:11:27;;;;;;;4.70;2.00;;;;;;;7.38;29.12;99662.28;105374;1258;73683;-51
2023/03/06 13:13:54;;;;;;;3.70;1.20;;;;;;;7.39;28.90;99664.08;105435;1258;60435;-51
2023/03/06 13:16:23;;;;;;;4.30;0.60;;;;;;;7.35;28.56;99670.86;105465;1253;61123;-55
2023/03/06 13:19:01;;;;;;;2.90;1.10;;;;;;;7.77;28.70;99671.75;105388;1257;74609;-55
2023/03/06 13:21:40;;;;;;;5.50;1.40;;;;;;;8.66;28.38;99667.32;105425;1254;71274;-53
2023/03/06 13:24:21;;;;;;;4.20;1.30;;;;;;;9.52;26.27;99673.39;105420;1254;73575;-54
2023/03/06 13:26:55;;;;;;;4.90;1.50;;;;;;;9.71;26.24;99671.71;105488;1253;60469;-52
2023/03/06 13:29:47;;;;;;;4.10;1.50;;;;;;;9.59;26.03;99678.05;105548;1257;60869;-53
2023/03/06 13:32:16;;;;;;;4.30;1.30;;;;;;;9.30;26.25;99667.58;105529;1257;74683;-54
2023/03/06 13:34:48;;;;;;;3.90;1.40;;;;;;;9.24;25.88;99673.84;105566;1253;71108;-52
2023/03/06 13:37:19;;;;;;;3.60;1.40;;;;;;;9.31;26.07;99672.05;105551;1253;73500;-52
2023/03/06 13:39:52;;;;;;;4.20;1.30;;;;;;;9.61;25.16;99679.42;106138;1253;60558;-54
2023/03/06 13:42:26;;;;;;;4.10;1.30;;;;;;;10.04;24.73;99681.46;105532;1254;62803;-54
2023/03/06 13:44:57;;;;;;;3.50;1.20;;;;;;;10.18;24.53;99676.33;105587;1257;74784;-54
2023/03/06 13:47:40;;;;;;;2.90;1.10;;;;;;;9.87;24.95;99680.84;105626;1253;71032;-55
2023/03/06 13:50:38;;;;;;;3.90;1.30;;;;;;;9.20;25.53;99683.08;105531;1257;73519;-52
2023/03/06 13:53:24;;;;;;;4.90;1.20;;;;;;;8.63;26.35;99682.81;105541;1253;60565;-53
2023/03/06 13:56:17;;;;;;;3.10;1.10;;;;;;;8.20;26.95;99682.85;105486;1257;61191;-53
2023/03/06 13:58:58;;;;;;;4.60;1.50;;;;;;;7.98;27.11;99681.48;105491;1259;74893;-52
2023/03/06 14:21:46;;;;;;;4.20;1.70;;;;;;;7.23;29.04;99680.52;102343;1290;605711;-53
2023/03/06 14:24:15;;;;;;;5.60;2.40;;;;;;;6.90;29.69;99684.62;104574;1266;81947;-52
2023/03/06 14:26:49;;;;;;;5.40;2.10;;;;;;;6.69;30.12;99688.66;104799;1267;61499;-52
2023/03/06 14:29:24;;;;;;;5.50;2.40;;;;;;;6.50;30.73;99691.93;104813;1268;72887;-53
2023/03/06 14:31:54;;;;;;;4.40;2.10;;;;;;;6.35;31.12;99691.97;104773;1268;69562;-55
2023/03/06 14:34:23;;;;;;;7.00;2.80;;;;;;;6.44;31.37;99688.91;104766;1268;73739;-54
2023/03/06 14:37:00;;;;;;;4.30;2.10;;;;;;;7.04;31.14;99691.23;104880;1266;60472;-55
2023/03/06 14:39:35;;;;;;;6.00;1.30;;;;;;;7.98;30.00;99686.15;104691;1270;61080;-53
2023/03/06 14:42:17;;;;;;;4.40;1.90;;;;;;;8.86;29.20;99692.48;104764;1269;73230;-53
2023/03/06 14:44:48;;;;;;;5.90;2.20;;;;;;;9.47;27.90;99690.44;104953;1269;71642;-53
2023/03/06 14:47:31;;;;;;;6.10;2.30;;;;;;;9.62;27.58;99690.52;104551;1268;72482;-53
2023/03/06 14:50:25;;;;;;;7.30;2.40;;;;;;;9.36;27.74;99695.39;104798;1265;59565;-52
2023/03/06 14:52:59;;;;;;;5.80;2.80;;;;;;;8.99;28.57;99702.36;104724;1266;61033;-51
2023/03/06 14:55:27;;;;;;;5.40;3.00;;;;;;;9.01;29.63;99698.23;104786;1266;74042;-53
2023/03/06 14:57:55;;;;;;;6.70;3.50;;;;;;;9.44;30.05;99700.89;104751;1268;70034;-51
2023/03/06 15:00:25;;;;;;;7.20;4.10;;;;;;;9.94;29.91;99700.91;104788;1269;73492;-52
2023/03/06 15:02:52;;;;;;;8.20;3.90;;;;;;;10.23;29.65;99704.98;104779;1268;59772;-52
2023/03/06 15:05:20;;;;;;;8.20;3.60;;;;;;;10.15;29.19;99704.47;104687;1268;61123;-51
2023/03/06 15:07:47;;;;;;;6.00;3.20;;;;;;;9.61;29.07;99707.77;104756;1268;73963;-52
2023/03/06 15:10:26;;;;;;;6.20;3.30;;;;;;;8.97;29.86;99706.41;104590;1266;71259;-52
2023/03/06 15:12:54;;;;;;;6.30;3.50;;;;;;;8.43;30.37;99705.91;104847;1265;65352;-52
2023/03/06 15:15:29;;;;;;;8.90;3.40;;;;;;;7.96;31.11;99707.59;104658;1265;59632;-50
2023/03/06 15:18:00;;;;;;;6.30;3.40;;;;;;;7.53;31.61;99709.91;104719;1268;59683;-53
2023/03/06 15:20:37;;;;;;;6.90;3.10;;;;;;;7.12;32.16;99707.00;104843;1268;65193;-51
2023/03/06 15:23:14;;;;;;;5.90;3.00;;;;;;;6.78;32.90;99713.79;104754;1266;62459;-50
2023/03/06 15:25:49;;;;;;;7.10;3.70;;;;;;;6.43;33.51;99717.16;104825;1268;64016;-54
2023/03/06 15:28:24;;;;;;;8.00;2.60;;;;;;;6.14;34.00;99715.77;104728;1266;59620;-52
2023/03/06 15:31:02;;;;;;;7.90;3.80;;;;;;;5.94;34.46;99720.71;105029;1265;60055;-51
2023/03/06 15:33:32;;;;;;;7.90;3.30;;;;;;;5.75;34.92;99723.91;104975;1267;65238;-51
2023/03/06 15:36:01;;;;;;;3.40;0.90;;;;;;;5.61;35.36;99727.02;105010;1263;62523;-52
2023/03/06 15:38:40;;;;;;;7.80;3.90;;;;;;;5.48;35.61;99730.55;105010;1263;65205;-52
2023/03/06 15:41:20;;;;;;;7.50;3.30;;;;;;;5.37;36.04;99731.25;105044;1263;59780;-52
2023/03/06 15:43:47;;;;;;;5.30;1.80;;;;;;;5.29;36.46;99732.20;104966;1263;59673;-53
2023/03/06 15:46:13;;;;;;;9.40;4.30;;;;;;;5.19;36.88;99733.37;104814;1265;65123;-53
2023/03/06 15:48:57;;;;;;;7.10;2.00;;;;;;;5.10;37.39;99731.94;105152;1264;62676;-51
2023/03/06 15:51:24;;;;;;;7.20;4.30;;;;;;;5.02;37.91;99738.55;105077;1266;64756;-52
2023/03/06 15:53:51;;;;;;;7.00;3.90;;;;;;;4.92;38.28;99738.28;105183;1263;59635;-52
2023/03/06 15:56:29;;;;;;;5.20;1.80;;;;;;;4.83;38.65;99738.39;105054;1263;59685;-52
2023/03/06 15:58:56;;;;;;;6.50;2.10;;;;;;;4.75;39.20;99740.48;104961;1262;64468;-54
2023/03/06 16:01:22;;;;;;;7.40;4.10;;;;;;;4.68;39.60;99743.41;104941;1263;62584;-52
2023/03/06 16:04:01;;;;;;;4.90;1.90;;;;;;;4.59;39.99;99743.80;105063;1265;65075;-52
2023/03/06 16:06:29;;;;;;;9.10;2.00;;;;;;;4.52;40.43;99742.83;105111;1265;59631;-52
2023/03/06 16:08:56;;;;;;;7.10;2.30;;;;;;;4.47;40.73;99746.79;104965;1263;59753;-51
2023/03/06 16:11:30;;;;;;;9.60;5.00;;;;;;;4.41;41.01;99747.89;105228;1265;65178;-53
2023/03/06 16:14:27;;;;;;;7.40;2.20;;;;;;;4.34;41.36;99754.95;104956;1265;62637;-53
2023/03/06 16:16:55;;;;;;;6.80;3.00;;;;;;;4.25;41.55;99759.38;105093;1268;63934;-52
2023/03/06 16:19:23;;;;;;;10.80;4.90;;;;;;;4.14;41.87;99760.73;105047;1265;60595;-52
2023/03/06 16:21:55;;;;;;;6.40;2.40;;;;;;;4.05;42.16;99758.66;105059;1265;59911;-53
2023/03/06 16:24:22;;;;;;;9.20;2.50;;;;;;;3.99;42.45;99760.99;105114;1265;65159;-50
2023/03/06 16:26:51;;;;;;;8.50;2.20;;;;;;;3.92;42.46;99760.90;105284;1262;62350;-52
2023/03/06 16:29:21;;;;;;;6.50;3.00;;;;;;;3.86;42.74;99765.92;105061;1263;65414;-52
2023/03/06 16:31:48;;;;;;;7.70;2.90;;;;;;;3.82;42.75;99767.08;105141;1263;60334;-51
2023/03/06 16:34:18;;;;;;;7.40;2.50;;;;;;;3.77;42.96;99769.98;105076;1263;59715;-52
2023/03/06 16:36:46;;;;;;;7.10;2.80;;;;;;;3.72;43.05;99769.08;105092;1265;65323;-52
2023/03/06 16:39:14;;;;;;;6.80;2.60;;;;;;;3.65;43.24;99768.30;105004;1264;61760;-52
2023/03/06 16:41:48;;;;;;;9.10;2.70;;;;;;;3.59;43.37;99766.02;104963;1275;64955;-51
2023/03/06 16:44:15;;;;;;;11.50;6.30;;;;;;;3.57;43.41;99766.54;104971;1263;60576;-52
2023/03/06 16:46:44;;;;;;;6.90;1.90;;;;;;;3.52;43.42;99768.34;105040;1262;62365;-52
2023/03/06 16:49:22;;;;;;;7.30;2.10;;;;;;;3.47;43.52;99766.90;104962;1265;65346;-51
2023/03/06 16:51:49;;;;;;;7.10;2.90;;;;;;;3.43;43.71;99768.05;104961;1263;62752;-52
2023/03/06 16:54:16;;;;;;;11.10;3.30;;;;;;;3.38;43.99;99771.14;105002;1263;64940;-52
2023/03/06 16:56:43;;;;;;;11.70;6.70;;;;;;;3.31;44.20;99769.23;104936;1265;59288;-51
2023/03/06 16:59:14;;;;;;;5.50;2.10;;;;;;;3.28;44.37;99768.39;104891;1266;59592;-52
2023/03/06 17:01:41;;;;;;;7.00;2.50;;;;;;;3.27;44.50;99768.30;105046;1266;65218;-52
2023/03/06 17:04:09;;;;;;;7.70;2.80;;;;;;;3.26;44.60;99768.19;105159;1262;62659;-54
2023/03/06 17:06:36;;;;;;;7.00;1.90;;;;;;;3.25;44.70;99764.42;104893;1262;73473;-51
2023/03/06 17:09:04;;;;;;;8.10;2.80;;;;;;;3.24;44.83;99762.62;105278;1265;59573;-52
2023/03/06 17:11:31;;;;;;;7.20;2.00;;;;;;;3.21;44.92;99768.33;104977;1268;61351;-54
2023/03/06 17:14:00;;;;;;;7.40;2.40;;;;;;;3.17;45.07;99766.61;105009;1265;65388;-52
2023/03/06 17:16:27;;;;;;;9.70;3.20;;;;;;;3.14;45.26;99767.16;105030;1262;71283;-51
2023/03/06 17:18:56;;;;;;;6.50;2.50;;;;;;;3.11;45.28;99771.48;104878;1267;73862;-52
2023/03/06 17:21:25;;;;;;;8.20;2.30;;;;;;;3.08;45.45;99769.23;105840;1271;59595;-53
2023/03/06 17:23:53;;;;;;;6.70;3.00;;;;;;;3.05;45.57;99768.90;104897;1265;59937;-52
2023/03/06 17:26:24;;;;;;;7.80;3.10;;;;;;;3.01;45.72;99772.77;104865;1265;65476;-52
2023/03/06 17:28:53;;;;;;;9.00;2.90;;;;;;;2.96;45.89;99772.19;105030;1266;71176;-52
2023/03/06 17:31:22;;;;;;;8.10;3.00;;;;;;;2.91;46.03;99770.56;104965;1268;73732;-52
2023/03/06 17:33:50;;;;;;;13.20;5.00;;;;;;;2.87;46.40;99770.64;105114;1265;59694;-51
2023/03/06 17:36:18;;;;;;;12.40;3.50;;;;;;;2.83;46.55;99770.73;108724;1262;61024;-53
2023/03/06 17:38:46;;;;;;;9.30;4.40;;;;;;;2.78;46.75;99771.48;108692;1261;73839;-55
2023/03/06 17:41:12;;;;;;;9.10;3.30;;;;;;;2.75;46.95;99773.04;108725;1262;70962;-53
2023/03/06 17:43:39;;;;;;;9.20;2.60;;;;;;;2.73;47.24;99767.63;108709;1262;73641;-54
2023/03/06 17:46:08;;;;;;;7.50;3.40;;;;;;;2.72;47.36;99772.86;108704;1261;59363;-54
2023/03/06 17:48:35;;;;;;;8.60;4.40;;;;;;;2.70;47.70;99772.29;108725;1262;61161;-54
2023/03/06 17:51:05;;;;;;;8.50;3.20;;;;;;;2.70;47.90;99775.95;106345;1263;74007;-53
2023/03/06 17:53:33;;;;;;;14.40;8.30;;;;;;;2.68;48.18;99769.98;104976;1265;71246;-53
2023/03/06 17:56:08;;;;;;;6.60;2.30;;;;;;;2.66;48.39;99774.60;105096;1265;73432;-53
2023/03/06 17:58:36;;;;;;;9.20;3.30;;;;;;;2.64;48.58;99773.70;105180;1265;59753;-52
2023/03/06 18:01:17;;;;;;;10.40;3.70;;;;;;;2.58;48.84;99773.52;105027;1263;61121;-52
2023/03/06 18:04:03;;;;;;;8.10;3.70;;;;;;;2.51;49.24;99775.42;105014;1266;65572;-52
2023/03/06 18:06:32;;;;;;;8.40;4.00;;;;;;;2.45;49.55;99779.61;104989;1265;71499;-53